Terminal Aerodrome Forecast
Issued by NWS

Home | Current Version | Previous Version | Text Only | Print | Product List | Glossary On
Versions: 1 2 3 4 5 6 7 8 9 10 11 12 13 14 15 16 17 18 19 20 21 22 23 24 25 26
000
FTAK31 PANC 271140
TAFAIL
TAF
PAIL 271140Z 2712/2812 05005KT P6SM SCT007
      TEMPO 2712/2716 BKN007
     FM280000 07010KT P6SM BKN040 OVC080
     FM280500 08012KT P6SM VCSH BKN030 OVC060=

USA.gov is the U.S. government's official web portal to all federal, state and local government web resources and services.